createdAt,value
2017-08-20T00:00:50.926Z,63.8
2017-08-20T00:01:52.561Z,63.9
2017-08-20T00:02:54.195Z,63.7
2017-08-20T00:03:55.829Z,63.7
2017-08-20T00:04:57.467Z,63.6
2017-08-20T00:05:59.110Z,63.5
2017-08-20T00:07:00.741Z,63.8
2017-08-20T00:08:02.383Z,63.5
2017-08-20T00:09:04.015Z,63.8
2017-08-20T00:10:05.650Z,63.9
2017-08-20T00:11:07.288Z,63.5
2017-08-20T00:12:08.924Z,63.5
2017-08-20T00:13:10.562Z,63.9
2017-08-20T00:14:12.197Z,63.4
2017-08-20T00:15:13.837Z,63.9
2017-08-20T00:16:15.474Z,63.3
2017-08-20T00:17:17.111Z,63.3
2017-08-20T00:18:18.744Z,63.5
2017-08-20T00:19:20.386Z,63.3
2017-08-20T00:20:22.018Z,63.3
2017-08-20T00:21:23.659Z,63.6
2017-08-20T00:22:25.299Z,63.3
2017-08-20T00:23:26.933Z,63.4
2017-08-20T00:24:28.568Z,63.3
2017-08-20T00:25:30.201Z,63.6
2017-08-20T00:26:31.839Z,63.6
2017-08-20T00:27:33.476Z,63.5
2017-08-20T00:28:35.113Z,63.6
2017-08-20T00:29:36.751Z,63.6
2017-08-20T00:30:38.387Z,63.4
2017-08-20T00:31:40.023Z,63.3
2017-08-20T00:32:41.655Z,63.3
2017-08-20T00:33:43.289Z,64.0
2017-08-20T00:34:44.927Z,63.6
2017-08-20T00:35:46.566Z,63.4
2017-08-20T00:36:48.205Z,63.5
2017-08-20T00:37:49.841Z,63.4
2017-08-20T00:38:51.478Z,63.5
2017-08-20T00:39:53.119Z,63.4
2017-08-20T00:40:54.751Z,63.8
2017-08-20T00:41:56.386Z,63.6
2017-08-20T00:42:58.025Z,63.4
2017-08-20T00:43:59.664Z,63.3
2017-08-20T00:45:01.302Z,63.5
2017-08-20T00:46:02.935Z,63.3
2017-08-20T00:47:04.568Z,63.5
2017-08-20T00:48:06.206Z,63.6
2017-08-20T00:49:07.842Z,63.5
2017-08-20T00:50:09.482Z,63.4
2017-08-20T00:51:11.121Z,63.6
2017-08-20T00:52:12.755Z,63.5
2017-08-20T00:53:14.388Z,63.3
2017-08-20T00:54:16.022Z,63.6
2017-08-20T00:55:17.658Z,63.1
2017-08-20T00:56:19.298Z,63.3
2017-08-20T00:57:20.933Z,63.3
2017-08-20T00:58:22.571Z,63.6
2017-08-20T00:59:24.209Z,63.2
2017-08-20T01:00:25.842Z,63.2
2017-08-20T01:01:27.476Z,63.2
2017-08-20T01:02:29.113Z,63.3
2017-08-20T01:03:30.751Z,63.2
2017-08-20T01:04:32.389Z,63.2
2017-08-20T01:05:34.030Z,63.4
2017-08-20T01:06:35.662Z,63.5
2017-08-20T01:07:37.298Z,63.3
2017-08-20T01:08:38.936Z,63.6
2017-08-20T01:09:40.569Z,63.3
2017-08-20T01:10:42.207Z,63.6
2017-08-20T01:11:43.843Z,63.4
2017-08-20T01:12:45.483Z,63.1
2017-08-20T01:13:47.114Z,63.2
2017-08-20T01:14:48.750Z,63.1
2017-08-20T01:15:50.387Z,63.3
2017-08-20T01:16:52.023Z,63.3
2017-08-20T01:17:53.659Z,63.3
2017-08-20T01:18:55.296Z,63.3
2017-08-20T01:19:56.934Z,63.2
2017-08-20T01:20:58.571Z,63.4
2017-08-20T01:22:00.205Z,63.1
2017-08-20T01:23:01.844Z,63.2
2017-08-20T01:24:03.479Z,63.6
2017-08-20T01:25:05.117Z,63.6
2017-08-20T01:26:06.754Z,63.6
2017-08-20T01:27:08.389Z,63.3
2017-08-20T01:28:10.025Z,63.2
2017-08-20T01:29:11.662Z,63.5
2017-08-20T01:30:13.299Z,63.5
2017-08-20T01:31:14.937Z,63.5
2017-08-20T01:32:16.573Z,63.3
2017-08-20T01:33:18.212Z,63.3
2017-08-20T01:34:19.853Z,63.3
2017-08-20T01:35:21.487Z,63.5
2017-08-20T01:36:23.118Z,63.5
2017-08-20T01:37:24.752Z,63.5
2017-08-20T01:38:26.391Z,63.6
2017-08-20T01:39:28.027Z,63.6
2017-08-20T01:40:29.668Z,63.5
2017-08-20T01:41:31.307Z,63.6
2017-08-20T01:42:32.942Z,63.4
2017-08-20T01:43:34.577Z,63.4
2017-08-20T01:44:36.212Z,63.3
2017-08-20T01:45:37.848Z,63.1
2017-08-20T01:46:39.483Z,63.6
2017-08-20T01:47:41.120Z,63.5
2017-08-20T01:48:42.757Z,63.5
2017-08-20T01:49:44.392Z,63.1
2017-08-20T01:50:46.029Z,63.2
2017-08-20T01:51:47.682Z,63.4
2017-08-20T01:52:49.317Z,63.4
2017-08-20T01:53:50.957Z,63.2
2017-08-20T01:54:52.596Z,63.4
2017-08-20T01:55:54.232Z,63.3
2017-08-20T01:56:55.868Z,63.2
2017-08-20T01:57:57.502Z,63.3
2017-08-20T01:58:59.140Z,63.3
2017-08-20T02:00:00.775Z,63.1
2017-08-20T02:01:02.411Z,63.1
2017-08-20T02:02:04.050Z,63.3
2017-08-20T02:03:05.687Z,63.2
2017-08-20T02:04:07.325Z,63.3
2017-08-20T02:05:08.958Z,63.3
2017-08-20T02:06:10.595Z,63.0
2017-08-20T02:07:12.230Z,63.2
2017-08-20T02:08:13.869Z,63.4
2017-08-20T02:09:15.506Z,63.1
2017-08-20T02:10:17.146Z,63.2
2017-08-20T02:11:18.780Z,63.2
2017-08-20T02:12:20.415Z,63.3
2017-08-20T02:13:22.048Z,63.2
2017-08-20T02:14:23.686Z,63.2
2017-08-20T02:15:25.323Z,63.3
2017-08-20T02:16:26.965Z,63.1
2017-08-20T02:17:28.603Z,63.3
2017-08-20T02:18:30.239Z,63.2
2017-08-20T02:19:31.874Z,63.1
2017-08-20T02:20:33.509Z,63.1
2017-08-20T02:21:35.149Z,63.2
2017-08-20T02:22:36.785Z,63.0
2017-08-20T02:23:38.421Z,63.4
2017-08-20T02:24:40.058Z,63.2
2017-08-20T02:25:41.694Z,63.3
2017-08-20T02:26:43.330Z,63.2
2017-08-20T02:27:44.968Z,63.1
2017-08-20T02:28:46.605Z,63.3
2017-08-20T02:29:48.241Z,63.3
2017-08-20T02:30:49.877Z,63.3
2017-08-20T02:31:51.519Z,63.3
2017-08-20T02:32:53.151Z,63.2
2017-08-20T02:33:54.790Z,63.3
2017-08-20T02:34:56.425Z,63.3
2017-08-20T02:35:58.059Z,63.3
2017-08-20T02:36:59.694Z,63.3
2017-08-20T02:38:01.333Z,63.1
2017-08-20T02:39:02.973Z,63.3
2017-08-20T02:40:04.609Z,63.4
2017-08-20T02:41:06.242Z,63.3
2017-08-20T02:42:07.882Z,63.1
2017-08-20T02:43:09.516Z,63.3
2017-08-20T02:44:11.155Z,63.2
2017-08-20T02:45:12.793Z,63.3
2017-08-20T02:46:14.432Z,63.1
2017-08-20T02:47:16.065Z,63.3
2017-08-20T02:48:17.702Z,63.3
2017-08-20T02:49:19.342Z,63.1
2017-08-20T02:50:20.978Z,63.3
2017-08-20T02:51:22.612Z,63.1
2017-08-20T02:52:24.249Z,63.3
2017-08-20T02:53:25.889Z,63.1
2017-08-20T02:54:27.524Z,63.1
2017-08-20T02:55:29.160Z,63.2
2017-08-20T02:56:30.797Z,63.3
2017-08-20T02:57:32.435Z,63.5
2017-08-20T02:58:34.070Z,63.3
2017-08-20T02:59:35.709Z,63.0
2017-08-20T03:00:37.350Z,63.3
2017-08-20T03:01:41.729Z,63.2
2017-08-20T03:02:43.366Z,63.1
2017-08-20T03:03:44.998Z,63.1
2017-08-20T03:04:46.634Z,63.3
2017-08-20T03:05:48.272Z,63.0
2017-08-20T03:06:49.907Z,63.1
2017-08-20T03:07:51.547Z,63.2
2017-08-20T03:08:53.181Z,63.2
2017-08-20T03:09:54.818Z,63.2
2017-08-20T03:10:56.452Z,63.0
2017-08-20T03:11:58.091Z,63.2
2017-08-20T03:12:59.727Z,63.1
2017-08-20T03:14:01.365Z,63.0
2017-08-20T03:15:03.005Z,63.2
2017-08-20T03:16:04.636Z,63.5
2017-08-20T03:17:06.271Z,63.1
2017-08-20T03:18:07.911Z,63.3
2017-08-20T03:19:09.545Z,63.0
2017-08-20T03:20:11.187Z,63.0
2017-08-20T03:21:12.821Z,62.9
2017-08-20T03:22:14.459Z,63.2
2017-08-20T03:23:16.092Z,63.0
2017-08-20T03:24:17.731Z,63.2
2017-08-20T03:25:19.367Z,63.3
2017-08-20T03:26:21.005Z,63.3
2017-08-20T03:27:22.638Z,63.3
2017-08-20T03:28:24.276Z,63.4
2017-08-20T03:29:25.914Z,63.3
2017-08-20T03:30:27.550Z,63.3
2017-08-20T03:31:29.185Z,63.2
2017-08-20T03:32:30.821Z,63.1
2017-08-20T03:33:32.458Z,63.3
2017-08-20T03:34:34.097Z,63.3
2017-08-20T03:35:35.734Z,63.4
2017-08-20T03:36:37.373Z,63.3
2017-08-20T03:37:38.971Z,63.2
2017-08-20T03:38:40.606Z,63.3
2017-08-20T03:39:42.242Z,63.3
2017-08-20T03:40:43.878Z,63.2
2017-08-20T03:41:45.516Z,63.3
2017-08-20T03:42:47.153Z,63.4
2017-08-20T03:43:48.791Z,63.2
2017-08-20T03:44:50.425Z,63.1
2017-08-20T03:45:52.063Z,63.1
2017-08-20T03:46:53.700Z,63.3
2017-08-20T03:47:55.336Z,63.3
2017-08-20T03:48:56.982Z,63.3
2017-08-20T03:49:58.613Z,63.3
2017-08-20T03:51:00.252Z,63.3
2017-08-20T03:52:01.886Z,63.4
2017-08-20T03:53:03.522Z,63.2
2017-08-20T03:54:05.155Z,63.5
2017-08-20T03:55:06.793Z,63.3
2017-08-20T03:56:08.430Z,63.3
2017-08-20T03:57:10.070Z,63.4
2017-08-20T03:58:11.705Z,63.4
2017-08-20T03:59:13.340Z,63.2
2017-08-20T04:00:14.973Z,63.4
2017-08-20T04:01:16.609Z,63.3
2017-08-20T04:02:18.246Z,63.2
2017-08-20T04:03:19.886Z,63.5
2017-08-20T04:04:21.525Z,63.3
2017-08-20T04:05:23.161Z,63.1
2017-08-20T04:06:24.796Z,63.5
2017-08-20T04:07:26.430Z,63.1
2017-08-20T04:08:28.064Z,63.1
2017-08-20T04:09:29.700Z,63.3
2017-08-20T04:10:31.338Z,63.2
2017-08-20T04:11:32.976Z,63.2
2017-08-20T04:12:34.614Z,63.4
2017-08-20T04:13:36.249Z,63.1
2017-08-20T04:14:37.885Z,63.2
2017-08-20T04:15:39.523Z,63.4
2017-08-20T04:16:41.158Z,63.4
2017-08-20T04:17:42.799Z,63.3
2017-08-20T04:18:44.441Z,63.4
2017-08-20T04:19:46.081Z,63.3
2017-08-20T04:20:47.715Z,63.0
2017-08-20T04:21:49.350Z,63.4
2017-08-20T04:22:50.986Z,63.2
2017-08-20T04:23:52.620Z,63.4
2017-08-20T04:24:54.256Z,63.0
2017-08-20T04:25:55.895Z,63.3
2017-08-20T04:26:57.535Z,63.1
2017-08-20T04:27:59.168Z,62.8
2017-08-20T04:29:00.800Z,63.3
2017-08-20T04:30:02.441Z,63.1
2017-08-20T04:31:04.074Z,63.2
2017-08-20T04:32:05.714Z,63.1
2017-08-20T04:33:07.348Z,63.4
2017-08-20T04:34:08.987Z,63.3
2017-08-20T04:35:10.625Z,63.3
2017-08-20T04:36:12.254Z,62.9
2017-08-20T04:37:13.889Z,63.3
2017-08-20T04:38:15.528Z,63.3
2017-08-20T04:39:17.163Z,62.9
2017-08-20T04:40:18.799Z,63.4
2017-08-20T04:41:20.438Z,63.3
2017-08-20T04:42:22.072Z,63.3
2017-08-20T04:43:23.710Z,63.1
2017-08-20T04:44:25.344Z,63.0
2017-08-20T04:45:26.979Z,63.2
2017-08-20T04:46:28.619Z,63.3
2017-08-20T04:47:30.256Z,63.3
2017-08-20T04:48:31.896Z,63.3
2017-08-20T04:49:33.530Z,63.2
2017-08-20T04:50:35.168Z,63.2
2017-08-20T04:51:36.803Z,63.1
2017-08-20T04:52:38.439Z,63.3
2017-08-20T04:53:40.075Z,63.0
2017-08-20T04:54:41.711Z,63.2
2017-08-20T04:55:43.350Z,63.0
2017-08-20T04:56:44.983Z,63.2
2017-08-20T04:57:46.620Z,63.3
2017-08-20T04:58:48.252Z,63.0
2017-08-20T04:59:49.887Z,63.0
2017-08-20T05:00:51.523Z,63.2
2017-08-20T05:01:53.162Z,63.4
2017-08-20T05:02:54.807Z,63.5
2017-08-20T05:03:56.435Z,63.3
2017-08-20T05:04:58.069Z,63.4
2017-08-20T05:05:59.705Z,63.3
2017-08-20T05:07:01.343Z,63.5
2017-08-20T05:08:02.983Z,63.4
2017-08-20T05:09:04.621Z,63.0
2017-08-20T05:10:06.258Z,62.7
2017-08-20T05:11:07.894Z,62.8
2017-08-20T05:12:09.529Z,63.1
2017-08-20T05:13:11.168Z,63.3
2017-08-20T05:14:12.804Z,62.3
2017-08-20T05:15:14.443Z,62.7
2017-08-20T05:16:16.080Z,62.6
2017-08-20T05:17:17.719Z,62.6
2017-08-20T05:18:19.353Z,62.4
2017-08-20T05:19:20.990Z,62.6
2017-08-20T05:20:22.620Z,62.5
2017-08-20T05:21:24.257Z,62.3
2017-08-20T05:22:25.894Z,62.6
2017-08-20T05:23:27.532Z,62.6
2017-08-20T05:24:29.170Z,62.7
2017-08-20T05:25:30.812Z,62.2
2017-08-20T05:26:32.445Z,63.3
2017-08-20T05:27:34.078Z,62.5
2017-08-20T05:28:35.716Z,62.6
2017-08-20T05:29:37.353Z,62.5
2017-08-20T05:30:38.991Z,62.6
2017-08-20T05:31:40.633Z,62.7
2017-08-20T05:32:42.267Z,62.2
2017-08-20T05:33:43.931Z,62.5
2017-08-20T05:34:45.539Z,62.5
2017-08-20T05:35:47.177Z,62.7
2017-08-20T05:36:48.813Z,62.5
2017-08-20T05:37:50.451Z,62.6
2017-08-20T05:38:52.095Z,62.7
2017-08-20T05:39:53.728Z,62.6
2017-08-20T05:40:55.365Z,62.5
2017-08-20T05:41:57.024Z,62.5
2017-08-20T05:42:58.638Z,62.8
2017-08-20T05:44:00.279Z,62.6
2017-08-20T05:45:01.935Z,62.6
2017-08-20T05:46:03.574Z,62.6
2017-08-20T05:47:05.210Z,62.7
2017-08-20T05:48:06.845Z,62.7
2017-08-20T05:49:08.481Z,62.7
2017-08-20T05:50:10.133Z,62.6
2017-08-20T05:51:11.771Z,62.5
2017-08-20T05:52:13.407Z,62.5
2017-08-20T05:53:15.048Z,62.5
2017-08-20T05:54:16.683Z,62.6
2017-08-20T05:55:18.320Z,62.5
2017-08-20T05:56:19.960Z,62.5
2017-08-20T05:57:21.598Z,62.8
2017-08-20T05:58:23.236Z,62.6
2017-08-20T05:59:24.878Z,62.6
2017-08-20T06:00:26.515Z,62.7
2017-08-20T06:01:28.149Z,62.7
2017-08-20T06:02:29.784Z,62.6
2017-08-20T06:03:31.427Z,62.5
2017-08-20T06:04:33.062Z,62.6
2017-08-20T06:05:34.704Z,62.6
2017-08-20T06:06:36.338Z,62.6
2017-08-20T06:07:37.977Z,62.5
2017-08-20T06:08:39.613Z,62.7
2017-08-20T06:09:41.250Z,62.6
2017-08-20T06:10:42.889Z,62.6
2017-08-20T06:11:44.521Z,62.8
2017-08-20T06:12:46.166Z,62.5
2017-08-20T06:13:47.803Z,62.6
2017-08-20T06:14:49.442Z,62.7
2017-08-20T06:15:51.079Z,62.5
2017-08-20T06:16:52.717Z,62.4
2017-08-20T06:17:54.354Z,62.3
2017-08-20T06:18:55.992Z,62.6
2017-08-20T06:19:57.633Z,62.5
2017-08-20T06:20:59.273Z,62.8
2017-08-20T06:22:00.913Z,62.7
2017-08-20T06:23:02.547Z,62.6
2017-08-20T06:24:04.188Z,62.4
2017-08-20T06:25:05.826Z,62.6
2017-08-20T06:26:07.462Z,62.4
2017-08-20T06:27:09.111Z,62.7
2017-08-20T06:28:10.767Z,62.9
2017-08-20T06:29:12.405Z,63.2
2017-08-20T06:30:14.041Z,63.4
2017-08-20T06:31:15.700Z,63.4
2017-08-20T06:32:17.344Z,63.3
2017-08-20T06:33:18.980Z,63.3
2017-08-20T06:34:20.616Z,63.3
2017-08-20T06:35:22.273Z,63.2
2017-08-20T06:36:23.912Z,63.2
2017-08-20T06:37:25.546Z,63.3
2017-08-20T06:38:27.183Z,63.2
2017-08-20T06:39:28.823Z,63.2
2017-08-20T06:40:30.464Z,63.1
2017-08-20T06:41:32.108Z,63.2
2017-08-20T06:42:33.738Z,63.2
2017-08-20T06:43:35.377Z,63.3
2017-08-20T06:44:37.014Z,63.1
2017-08-20T06:45:38.659Z,63.1
2017-08-20T06:46:40.306Z,63.1
2017-08-20T06:47:41.947Z,63.0
2017-08-20T06:48:43.584Z,63.1
2017-08-20T06:49:45.223Z,63.3
2017-08-20T06:50:46.862Z,63.0
2017-08-20T06:51:48.499Z,63.2
2017-08-20T06:52:50.133Z,62.9
2017-08-20T06:53:51.774Z,63.2
2017-08-20T06:54:53.414Z,63.2
2017-08-20T06:55:55.053Z,63.3
2017-08-20T06:56:56.694Z,62.9
2017-08-20T06:57:58.346Z,63.1
2017-08-20T06:58:59.978Z,63.0
2017-08-20T07:00:01.614Z,63.2
2017-08-20T07:01:03.251Z,63.1
2017-08-20T07:02:04.888Z,63.1
2017-08-20T07:03:06.527Z,63.1
2017-08-20T07:04:08.166Z,63.1
2017-08-20T07:05:09.805Z,63.1
2017-08-20T07:06:11.438Z,63.5
2017-08-20T07:07:13.073Z,63.5
2017-08-20T07:08:14.710Z,63.3
2017-08-20T07:09:16.349Z,62.8
2017-08-20T07:10:17.984Z,63.1
2017-08-20T07:11:19.623Z,62.7
2017-08-20T07:12:21.261Z,63.1
2017-08-20T07:13:22.898Z,62.8
2017-08-20T07:14:24.534Z,62.4
2017-08-20T07:15:26.173Z,62.8
2017-08-20T07:16:27.807Z,62.6
2017-08-20T07:17:29.446Z,62.7
2017-08-20T07:18:31.095Z,62.2
2017-08-20T07:19:32.726Z,62.4
2017-08-20T07:20:34.370Z,62.7
2017-08-20T07:21:36.010Z,62.5
2017-08-20T07:22:37.645Z,62.3
2017-08-20T07:23:39.280Z,62.7
2017-08-20T07:24:40.943Z,62.4
2017-08-20T07:25:42.582Z,62.6
2017-08-20T07:26:44.221Z,62.6
2017-08-20T07:27:45.856Z,62.5
2017-08-20T07:28:47.492Z,62.6
2017-08-20T07:29:49.127Z,62.6
2017-08-20T07:30:50.769Z,62.4
2017-08-20T07:31:52.405Z,62.7
2017-08-20T07:32:54.045Z,62.8
2017-08-20T07:33:55.695Z,62.6
2017-08-20T07:34:57.322Z,62.6
2017-08-20T07:35:58.958Z,62.7
2017-08-20T07:37:00.594Z,62.6
2017-08-20T07:38:02.233Z,62.7
2017-08-20T07:39:03.873Z,62.6
2017-08-20T07:40:05.515Z,62.5
2017-08-20T07:41:07.151Z,62.7
2017-08-20T07:42:08.790Z,62.6
2017-08-20T07:43:10.426Z,62.7
2017-08-20T07:44:12.064Z,62.3
2017-08-20T07:45:13.704Z,62.5
2017-08-20T07:46:15.346Z,62.5
2017-08-20T07:47:16.983Z,62.7
2017-08-20T07:48:18.622Z,62.6
2017-08-20T07:49:20.258Z,62.7
2017-08-20T07:50:21.899Z,62.6
2017-08-20T07:51:23.536Z,63.0
2017-08-20T07:52:25.176Z,62.7
2017-08-20T07:53:26.815Z,62.5
2017-08-20T07:54:28.455Z,62.6
2017-08-20T07:55:30.096Z,62.3
2017-08-20T07:56:31.736Z,62.5
2017-08-20T07:57:33.367Z,62.3
2017-08-20T07:58:35.020Z,62.5
2017-08-20T07:59:36.658Z,62.7
2017-08-20T08:00:38.295Z,62.5
2017-08-20T08:01:39.933Z,62.5
2017-08-20T08:02:41.578Z,62.6
2017-08-20T08:03:43.214Z,62.4
2017-08-20T08:04:44.852Z,62.5
2017-08-20T08:05:46.489Z,62.4
2017-08-20T08:06:48.129Z,62.4
2017-08-20T08:07:49.770Z,62.5
2017-08-20T08:08:51.408Z,62.5
2017-08-20T08:09:53.053Z,62.5
2017-08-20T08:10:54.691Z,62.6
2017-08-20T08:11:56.330Z,62.7
2017-08-20T08:12:57.967Z,62.5
2017-08-20T08:13:59.607Z,62.6
2017-08-20T08:15:01.248Z,62.7
2017-08-20T08:16:02.902Z,62.6
2017-08-20T08:17:04.542Z,62.6
2017-08-20T08:18:06.178Z,62.7
2017-08-20T08:19:07.816Z,62.6
2017-08-20T08:20:09.455Z,62.5
2017-08-20T08:21:11.098Z,62.7
2017-08-20T08:22:12.739Z,62.5
2017-08-20T08:23:14.376Z,62.4
2017-08-20T08:24:16.026Z,62.6
2017-08-20T08:25:17.667Z,62.6
2017-08-20T08:26:19.301Z,62.7
2017-08-20T08:27:20.941Z,62.8
2017-08-20T08:28:22.578Z,62.2
2017-08-20T08:29:24.216Z,62.2
2017-08-20T08:30:25.857Z,62.2
2017-08-20T08:31:27.501Z,62.3
2017-08-20T08:32:29.136Z,62.4
2017-08-20T08:33:30.773Z,62.4
2017-08-20T08:34:32.413Z,61.9
2017-08-20T08:35:34.050Z,62.4
2017-08-20T08:36:35.690Z,62.5
2017-08-20T08:37:37.330Z,62.5
2017-08-20T08:38:38.976Z,62.6
2017-08-20T08:39:40.611Z,61.9
2017-08-20T08:40:42.250Z,61.9
2017-08-20T08:41:43.892Z,62.2
2017-08-20T08:42:45.531Z,62.2
2017-08-20T08:43:47.170Z,62.0
2017-08-20T08:44:48.810Z,62.1
2017-08-20T08:45:50.455Z,62.1
2017-08-20T08:46:52.097Z,62.0
2017-08-20T08:47:53.732Z,62.0
2017-08-20T08:48:55.370Z,61.9
2017-08-20T08:49:57.010Z,62.1
2017-08-20T08:50:58.651Z,62.1
2017-08-20T08:52:00.290Z,62.1
2017-08-20T08:53:01.933Z,62.1
2017-08-20T08:54:03.569Z,62.1
2017-08-20T08:55:05.206Z,62.1
2017-08-20T08:56:06.847Z,62.1
2017-08-20T08:57:08.487Z,62.0
2017-08-20T08:58:10.125Z,61.9
2017-08-20T08:59:11.765Z,62.3
2017-08-20T09:00:13.406Z,61.8
2017-08-20T09:01:15.046Z,62.4
2017-08-20T09:02:16.683Z,61.8
2017-08-20T09:03:18.319Z,62.3
2017-08-20T09:04:19.966Z,62.3
2017-08-20T09:05:21.606Z,62.2
2017-08-20T09:06:23.249Z,62.1
2017-08-20T09:07:24.891Z,61.7
2017-08-20T09:08:26.527Z,61.7
2017-08-20T09:09:28.167Z,61.9
2017-08-20T09:10:29.804Z,62.0
2017-08-20T09:11:31.446Z,61.9
2017-08-20T09:12:33.087Z,61.8
2017-08-20T09:13:34.731Z,62.1
2017-08-20T09:14:36.369Z,62.0
2017-08-20T09:15:38.007Z,62.0
2017-08-20T09:16:39.647Z,61.7
2017-08-20T09:17:41.284Z,61.5
2017-08-20T09:18:42.927Z,61.5
2017-08-20T09:19:44.565Z,61.5
2017-08-20T09:20:46.206Z,61.5
2017-08-20T09:21:47.849Z,61.5
2017-08-20T09:22:49.486Z,61.7
2017-08-20T09:23:51.137Z,61.5
2017-08-20T09:24:53.392Z,62.0
2017-08-20T09:25:55.031Z,62.0
2017-08-20T09:26:56.669Z,62.0
2017-08-20T09:27:58.310Z,62.0
2017-08-20T09:28:59.951Z,62.0
2017-08-20T09:30:01.592Z,62.0
2017-08-20T09:31:03.228Z,61.8
2017-08-20T09:32:04.870Z,61.5
2017-08-20T09:33:06.512Z,61.6
2017-08-20T09:34:08.152Z,61.6
2017-08-20T09:35:09.792Z,61.5
2017-08-20T09:36:11.433Z,61.8
2017-08-20T09:37:13.069Z,62.0
2017-08-20T09:38:14.707Z,61.5
2017-08-20T09:39:16.348Z,61.7
2017-08-20T09:40:17.985Z,61.7
2017-08-20T09:41:19.625Z,61.9
2017-08-20T09:42:21.277Z,61.7
2017-08-20T09:43:22.933Z,61.5
2017-08-20T09:44:24.570Z,61.5
2017-08-20T09:45:26.209Z,61.5
2017-08-20T09:46:27.846Z,61.5
2017-08-20T09:47:29.488Z,61.5
2017-08-20T09:48:31.129Z,61.4
2017-08-20T09:49:32.771Z,61.5
2017-08-20T09:50:34.414Z,61.4
2017-08-20T09:51:36.054Z,61.4
2017-08-20T09:52:37.689Z,61.3
2017-08-20T09:53:39.331Z,61.5
2017-08-20T09:54:40.974Z,61.5
2017-08-20T09:55:42.612Z,61.5
2017-08-20T09:56:44.253Z,61.5
2017-08-20T09:57:45.893Z,61.4
2017-08-20T09:58:47.534Z,61.5
2017-08-20T09:59:49.174Z,61.5
2017-08-20T10:00:50.814Z,61.5
2017-08-20T10:01:52.453Z,61.5
2017-08-20T10:02:54.096Z,61.5
2017-08-20T10:03:55.735Z,61.5
2017-08-20T10:04:57.375Z,61.5
2017-08-20T10:05:59.016Z,61.5
2017-08-20T10:07:00.654Z,61.7
2017-08-20T10:08:02.294Z,61.6
2017-08-20T10:09:03.955Z,61.5
2017-08-20T10:10:05.594Z,61.7
2017-08-20T10:11:07.232Z,61.5
2017-08-20T10:12:08.872Z,61.5
2017-08-20T10:13:10.503Z,61.3
2017-08-20T10:14:12.156Z,61.5
2017-08-20T10:15:13.792Z,61.5
2017-08-20T10:16:15.433Z,61.5
2017-08-20T10:17:17.072Z,61.5
2017-08-20T10:18:18.711Z,61.5
2017-08-20T10:19:20.377Z,61.5
2017-08-20T10:20:22.013Z,61.4
2017-08-20T10:21:23.647Z,61.5
2017-08-20T10:22:25.290Z,61.3
2017-08-20T10:23:26.931Z,61.5
2017-08-20T10:24:28.569Z,61.5
2017-08-20T10:25:30.213Z,61.5
2017-08-20T10:26:31.854Z,61.5
2017-08-20T10:27:33.490Z,61.5
2017-08-20T10:28:35.128Z,61.5
2017-08-20T10:29:36.770Z,61.3
2017-08-20T10:30:38.407Z,61.6
2017-08-20T10:31:40.046Z,61.5
2017-08-20T10:32:41.721Z,61.5
2017-08-20T10:33:43.362Z,61.5
2017-08-20T10:34:45.053Z,61.5
2017-08-20T10:35:46.692Z,61.6
2017-08-20T10:36:48.331Z,61.6
2017-08-20T10:37:49.969Z,61.7
2017-08-20T10:38:51.618Z,61.6
2017-08-20T10:39:53.258Z,61.5
2017-08-20T10:40:54.902Z,61.8
2017-08-20T10:41:56.538Z,61.3
2017-08-20T10:42:58.172Z,61.3
2017-08-20T10:43:59.816Z,61.4
2017-08-20T10:45:01.458Z,61.4
2017-08-20T10:46:03.100Z,61.5
2017-08-20T10:47:04.745Z,61.5
2017-08-20T10:48:06.389Z,61.8
2017-08-20T10:49:08.026Z,61.3
2017-08-20T10:50:09.664Z,61.9
2017-08-20T10:51:11.305Z,61.5
2017-08-20T10:52:12.942Z,61.8
2017-08-20T10:53:14.584Z,61.5
2017-08-20T10:54:16.224Z,61.7
2017-08-20T10:55:17.863Z,61.8
2017-08-20T10:56:19.501Z,61.7
2017-08-20T10:57:21.140Z,61.7
2017-08-20T10:58:22.781Z,61.7
2017-08-20T10:59:24.424Z,61.7
2017-08-20T11:00:26.059Z,61.5
2017-08-20T11:01:27.702Z,61.6
2017-08-20T11:02:29.341Z,61.7
2017-08-20T11:03:30.987Z,61.7
2017-08-20T11:04:32.618Z,61.7
2017-08-20T11:05:34.261Z,61.5
2017-08-20T11:06:35.899Z,61.5
2017-08-20T11:07:37.543Z,61.5
2017-08-20T11:08:39.182Z,61.6
2017-08-20T11:09:40.825Z,61.4
2017-08-20T11:10:42.462Z,61.2
2017-08-20T11:11:44.101Z,61.4
2017-08-20T11:12:45.740Z,61.2
2017-08-20T11:13:47.377Z,61.6
2017-08-20T11:14:49.021Z,61.6
2017-08-20T11:15:50.660Z,61.4
2017-08-20T11:16:52.300Z,61.6
2017-08-20T11:17:53.941Z,61.5
2017-08-20T11:18:55.580Z,61.3
2017-08-20T11:19:57.218Z,61.2
2017-08-20T11:20:58.855Z,61.2
2017-08-20T11:22:00.500Z,61.7
2017-08-20T11:23:02.140Z,61.5
2017-08-20T11:24:03.782Z,61.3
2017-08-20T11:25:05.423Z,61.5
2017-08-20T11:26:07.060Z,61.2
2017-08-20T11:27:08.700Z,61.3
2017-08-20T11:28:10.342Z,61.3
2017-08-20T11:29:11.989Z,61.3
2017-08-20T11:30:13.630Z,61.6
2017-08-20T11:31:15.277Z,61.3
2017-08-20T11:32:16.916Z,61.6
2017-08-20T11:33:18.549Z,61.3
2017-08-20T11:34:20.185Z,61.5
2017-08-20T11:35:21.828Z,61.5
2017-08-20T11:36:23.464Z,61.3
2017-08-20T11:37:25.104Z,61.3
2017-08-20T11:38:26.745Z,61.2
2017-08-20T11:39:28.381Z,61.1
2017-08-20T11:40:30.020Z,61.2
2017-08-20T11:41:31.659Z,61.3
2017-08-20T11:42:33.298Z,61.2
2017-08-20T11:43:34.939Z,61.2
2017-08-20T11:44:36.579Z,61.6
2017-08-20T11:45:38.222Z,61.3
2017-08-20T11:46:39.859Z,61.4
2017-08-20T11:47:41.496Z,61.1
2017-08-20T11:48:43.134Z,61.2
2017-08-20T11:49:44.776Z,61.3
2017-08-20T11:50:46.415Z,61.5
2017-08-20T11:51:48.057Z,61.5
2017-08-20T11:52:49.696Z,61.4
2017-08-20T11:53:51.335Z,61.5
2017-08-20T11:54:52.975Z,61.5
2017-08-20T11:55:54.612Z,61.2
2017-08-20T11:56:56.251Z,61.4
2017-08-20T11:57:57.889Z,61.5
2017-08-20T11:58:59.528Z,61.4
2017-08-20T12:00:01.166Z,61.4
2017-08-20T12:01:02.807Z,61.5
2017-08-20T12:02:04.446Z,61.2
2017-08-20T12:03:06.083Z,61.3
2017-08-20T12:04:07.732Z,61.4
2017-08-20T12:05:09.368Z,61.3
2017-08-20T12:06:11.013Z,61.4
2017-08-20T12:07:12.657Z,61.3
2017-08-20T12:08:14.299Z,61.3
2017-08-20T12:09:15.934Z,61.4
2017-08-20T12:10:17.591Z,61.1
2017-08-20T12:11:19.248Z,60.9
2017-08-20T12:12:20.890Z,61.4
2017-08-20T12:13:22.529Z,61.4
2017-08-20T12:14:24.168Z,61.5
2017-08-20T12:15:25.817Z,61.4
2017-08-20T12:16:27.456Z,61.4
2017-08-20T12:17:29.095Z,61.3
2017-08-20T12:18:30.732Z,61.4
2017-08-20T12:19:32.381Z,61.2
2017-08-20T12:20:34.017Z,61.4
2017-08-20T12:21:35.662Z,61.3
2017-08-20T12:22:37.295Z,61.3
2017-08-20T12:23:38.936Z,61.4
2017-08-20T12:24:40.575Z,61.4
2017-08-20T12:25:42.217Z,61.3
2017-08-20T12:26:43.857Z,61.4
2017-08-20T12:27:45.497Z,61.2
2017-08-20T12:28:47.139Z,61.3
2017-08-20T12:29:48.772Z,61.4
2017-08-20T12:30:50.411Z,61.5
2017-08-20T12:31:52.044Z,61.3
2017-08-20T12:32:53.682Z,61.6
2017-08-20T12:33:55.326Z,61.3
2017-08-20T12:34:56.965Z,61.3
2017-08-20T12:35:58.607Z,61.6
2017-08-20T12:37:00.243Z,61.5
2017-08-20T12:38:01.880Z,61.3
2017-08-20T12:39:03.517Z,61.1
2017-08-20T12:40:05.159Z,61.3
2017-08-20T12:41:06.825Z,61.3
2017-08-20T12:42:08.440Z,61.3
2017-08-20T12:43:10.079Z,61.4
2017-08-20T12:44:11.719Z,61.3
2017-08-20T12:45:13.353Z,61.4
2017-08-20T12:46:14.993Z,61.5
2017-08-20T12:47:16.632Z,61.2
2017-08-20T12:48:18.270Z,61.3
2017-08-20T12:49:19.914Z,61.6
2017-08-20T12:50:21.549Z,61.4
2017-08-20T12:51:23.190Z,61.6
2017-08-20T12:52:24.827Z,61.3
2017-08-20T12:53:26.466Z,61.3
2017-08-20T12:54:28.101Z,61.4
2017-08-20T12:55:29.745Z,61.4
2017-08-20T12:56:31.383Z,61.4
2017-08-20T12:57:33.026Z,61.0
2017-08-20T12:58:34.665Z,61.1
2017-08-20T12:59:36.300Z,61.5
2017-08-20T13:00:37.937Z,61.6
2017-08-20T13:01:39.577Z,61.6
2017-08-20T13:02:41.217Z,61.5
2017-08-20T13:03:42.857Z,61.3
2017-08-20T13:04:44.499Z,61.5
2017-08-20T13:05:46.151Z,61.2
2017-08-20T13:06:47.777Z,61.8
2017-08-20T13:07:49.417Z,61.8
2017-08-20T13:08:51.056Z,61.7
2017-08-20T13:09:52.690Z,61.6
2017-08-20T13:10:54.337Z,61.5
2017-08-20T13:11:55.975Z,61.8
2017-08-20T13:12:57.614Z,61.4
2017-08-20T13:13:59.272Z,61.5
2017-08-20T13:15:00.908Z,61.6
2017-08-20T13:16:02.601Z,61.5
2017-08-20T13:17:04.239Z,61.6
2017-08-20T13:18:05.876Z,61.6
2017-08-20T13:19:07.519Z,61.6
2017-08-20T13:20:09.154Z,61.5
2017-08-20T13:21:10.794Z,61.7
2017-08-20T13:22:12.429Z,61.5
2017-08-20T13:23:14.069Z,61.4
2017-08-20T13:24:15.723Z,61.6
2017-08-20T13:25:17.364Z,61.5
2017-08-20T13:26:19.002Z,61.6
2017-08-20T13:27:20.637Z,61.5
2017-08-20T13:28:22.304Z,61.6
2017-08-20T13:29:23.942Z,61.5
2017-08-20T13:30:25.581Z,61.6
2017-08-20T13:31:27.223Z,61.5
2017-08-20T13:32:28.874Z,61.5
2017-08-20T13:33:30.512Z,61.5
2017-08-20T13:34:32.155Z,61.5
2017-08-20T13:35:33.794Z,61.5
2017-08-20T13:36:35.428Z,61.6
2017-08-20T13:37:37.070Z,61.5
2017-08-20T13:38:38.708Z,61.5
2017-08-20T13:39:40.351Z,61.5
2017-08-20T13:40:42.002Z,61.6